Sonic Adventure (DX): Time Rankings

Records: Times | Rings | Scores | Races | Bosses | Freestyle
Leaders: Times | Rings | Scores | Races | Bosses | Freestyle | Overall
Rank Player Percent Points Date
1 Gamepro011 99.6% 19 05-17-16
2 Sonicspeedruner 98.8% 62 05-17-16
3 Dashjump 95.4% 248 05-17-16
4 Jawzun 95.4% 249 05-17-16
5 DarkPolarNight 93.1% 369 05-17-16
6 F-Man 92.3% 413 05-17-16
7 drminus 92.2% 418 05-17-16
8 THC98 91.5% 457 05-17-16
9 ike6252 89.9% 544 05-17-16
10 Avento128bits 89.6% 561 05-17-16
11 francisco 89.2% 581 05-17-16
12 DarkspinesSonic 88.8% 605 05-17-16
13 Marth 88.7% 611 05-17-16
14 frankoredstrato 87.5% 677 05-17-16
15 Paragod 84.7% 828 05-17-16
16 HyperSonic7701 84.3% 846 05-17-16
17 chainchumper 84.2% 854 05-17-16
18 TheRealShadnic 81.4% 1004 05-17-16
19 InferSaime 81.4% 1005 05-17-16
20 Stefan 79.9% 1086 05-17-16
21 Redd 79.5% 1107 05-17-16
22 PfoSonic 79.3% 1119 05-17-16
23 Coolfansonic 79.2% 1126 05-17-16
24 bertin 77.5% 1215 05-17-16
25 yoshifan 77.0% 1246 05-17-16
26 xXMegaManXx 76.9% 1250 05-17-16
27 Dave Cramer 75.4% 1330 05-17-16
28 RPGnutter 74.9% 1358 05-17-16
29 Cybrax 73.4% 1440 05-17-16
30 sonicam 73.3% 1444 05-17-16
31 Ring Rush 70.5% 1596 05-17-16
32 mike89 69.8% 1635 05-17-16
33 NintenDan 69.6% 1647 05-17-16
34 a_moustache 68.2% 1724 05-17-16
35 SkyLights 65.8% 1850 05-17-16
36 Combo 64.4% 1925 05-17-16
37 SADXTryHard 62.4% 2037 05-17-16
38 P1 Pause 61.6% 2081 05-17-16
39 Nimrod 61.0% 2111 05-17-16
40 Groudon199 59.7% 2184 05-17-16
41 Game_Complete 59.1% 2213 05-17-16
42 Shadow Jacky 59.0% 2223 05-17-16
43 AxlThunder 58.6% 2243 05-17-16
44 VMU Player Banned 57.9% 2279 05-17-16
45 Thorn 57.7% 2291 05-17-16
46 SB737 56.6% 2349 05-17-16
47 The Knuckles Chao 56.6% 2350 05-17-16
48 Chao_Fan 56.1% 2376 05-17-16
49 SadisticMystic 56.0% 2382 05-17-16
50 Parax 55.7% 2397 05-17-16
51 Mastakirby 55.6% 2407 05-17-16
52 OmegaDJ 55.2% 2429 05-17-16
53 KinkyCadence 55.1% 2432 05-17-16
54 LittleBigness 55.0% 2436 05-17-16
55 mauserman 54.9% 2442 05-17-16
56 Psyknux 54.7% 2456 05-17-16
57 Auriman1 54.4% 2471 05-17-16
58 magnum12 54.3% 2475 05-17-16
59 Turbos 53.9% 2497 05-17-16
60 GerbilSoft 53.4% 2524 05-17-16
61 GreatStar 53.2% 2537 05-17-16
62 Webber3000 52.6% 2566 05-17-16
63 Hipertails12 51.5% 2625 05-17-16
64 James_Bertolli 49.5% 2737 05-17-16
65 Cream147 49.1% 2758 05-17-16
66 Skylace 48.3% 2800 05-17-16
66 welldooder64 48.3% 2800 05-17-16
68 Quartz 48.0% 2818 05-17-16
69 Omega Rafael Santos 47.9% 2823 05-17-16
70 Diamond 47.9% 2824 05-17-16
71 Psymar 47.7% 2832 05-17-16
72 SonicWinDX 46.8% 2881 05-17-16
73 teamblackarms 46.6% 2893 05-17-16
74 Andrea Ritsu 45.9% 2928 05-17-16
75 buddychaos0415 45.8% 2937 05-17-16
76 SilverSonic 45.0% 2982 05-17-16
77 SilvertheAlmighty 44.6% 3002 05-17-16
78 itsPersonnal 44.2% 3025 05-17-16
78 WeegeeZV 44.2% 3025 05-17-16
80 metanightmare22 43.7% 3049 05-17-16
81 lordmetalsonic 41.6% 3166 05-17-16
82 Arch 41.2% 3186 05-17-16
83 Termon 40.3% 3235 05-17-16
83 videogamemaster777 40.3% 3235 05-17-16
85 supersonicfan 39.9% 3255 05-17-16
86 Drakodan 39.3% 3287 05-17-16
87 Kanimayo_Jp 39.0% 3305 05-17-16
88 LilZero 39.0% 3306 05-17-16
89 paulie9990 38.8% 3314 05-17-16
90 FuzZerd 38.6% 3325 05-17-16
91 supersonic465 38.6% 3326 05-17-16
92 eggFL 38.1% 3356 05-17-16
93 Don 37.5% 3388 05-17-16
94 Siavash Tazari 36.4% 3443 05-17-16
95 Fr3nZy 36.1% 3464 05-17-16
96 f0rever_zer0 35.5% 3496 05-17-16
97 Cod4Scopes 35.1% 3515 05-17-16
98 Cyan Ryan 34.9% 3525 05-17-16
99 LinksDarkArrows 34.5% 3548 05-17-16
100 Austinf 34.0% 3576 05-17-16
101 Therio 33.9% 3581 05-17-16
102 danieldude 33.8% 3585 05-17-16
103 elecmouse101 33.6% 3599 05-17-16
104 Staf 33.3% 3612 05-17-16
105 MiStEr_ShAoLiN 33.0% 3628 05-17-16
106 Twilisailor 32.6% 3653 05-17-16
107 BrokenArthritis 32.3% 3666 05-17-16
108 videogamer1014 32.2% 3671 05-17-16
109 Xia 31.8% 3695 05-17-16
110 AC-Tygo 31.6% 3708 05-17-16
111 welshmoose05 31.4% 3717 05-17-16
112 OddCook 30.7% 3754 05-17-16
113 The Great Lord Mick 30.4% 3771 05-17-16
114 Aitamen 29.9% 3800 05-17-16
114 Mcshuggets 29.9% 3800 05-17-16
116 Maxinfamily 29.8% 3803 05-17-16
117 Matt_TY 29.6% 3815 05-17-16
118 dabestgamer 29.3% 3828 05-17-16
119 joecoolgames 29.3% 3830 05-17-16
120 imazor017 28.8% 3858 05-17-16
121 SuperSonic101 27.9% 3904 05-17-16
122 Shadowthegreat 27.9% 3906 05-17-16
123 superjupi 27.8% 3911 05-17-16
124 Rolken 27.4% 3932 05-17-16
125 thewaytodawnnn 27.2% 3945 05-17-16
126 Hunters13 27.1% 3951 05-17-16
127 sonamyfan666 26.8% 3964 05-17-16
128 iarebored 26.7% 3972 05-17-16
129 koinu93 26.6% 3978 05-17-16
130 Spinballwizard 26.5% 3981 05-17-16
131 SaviourDC 26.5% 3984 05-17-16
132 SonicKnuckles 26.4% 3989 05-17-16
133 EngiNerd 25.4% 4040 05-17-16
134 adf 25.3% 4047 05-17-16
135 Megaman EXE565 24.6% 4083 05-17-16
136 The T 24.3% 4103 05-17-16
137 Sonic Singularity 23.7% 4135 05-17-16
138 Platformer 23.4% 4150 05-17-16
138 Pokemonmaster888 23.4% 4150 05-17-16
140 SeaWolf 23.4% 4152 05-17-16
141 timpkmn89 23.0% 4173 05-17-16
142 ethmar 22.7% 4191 05-17-16
142 Swift Hobo 22.7% 4191 05-17-16
144 SuperBlitzCraig 22.5% 4199 05-17-16
145 Sondow 22.3% 4212 05-17-16
146 Rickyman48 22.1% 4223 05-17-16
147 FoxBoy 21.7% 4243 05-17-16
148 KitsuneYamaro 21.6% 4247 05-17-16
149 TFEC Headshot 21.1% 4274 05-17-16
150 Jerzia 21.1% 4275 05-17-16
151 Kogen Player Banned 20.7% 4296 05-17-16
152 Starlight Sable 20.0% 4337 05-17-16
153 IsisDazs 19.7% 4352 05-17-16
154 HyperSonic64 19.5% 4360 05-17-16
155 crazy1993 19.2% 4380 05-17-16
156 andres430 19.0% 4391 05-17-16
157 SonicU260 17.9% 4449 05-17-16
158 SonicAD 17.6% 4466 05-17-16
159 MPit08 17.5% 4468 05-17-16
160 sonicd5 17.3% 4480 05-17-16
161 iSonicKid2K 16.8% 4506 05-17-16
162 dShadow 16.8% 4509 05-17-16
163 BigAL49 16.2% 4539 05-17-16
164 Cutiefox 16.2% 4541 05-17-16
165 Chawkk 16.1% 4546 05-17-16
166 Miles9999 16.1% 4549 05-17-16
167 Monkeh 16.0% 4550 05-17-16
168 DaDude 15.5% 4581 05-17-16
169 Drflash55 15.1% 4598 05-17-16
170 Bass 14.9% 4610 05-17-16
171 Yish 14.6% 4627 05-17-16
172 Cruizer 14.6% 4628 05-17-16
173 Destroyer121121 14.5% 4631 05-17-16
174 neaolas 14.5% 4635 05-17-16
175 zapp 14.4% 4639 05-17-16
176 UninspiredUsername 14.2% 4647 05-17-16
177 superiorsonic 14.2% 4651 05-17-16
178 gamefreak1292 13.9% 4665 05-17-16
179 Cooljay 13.4% 4693 05-17-16
180 Chaos_Overlord 13.0% 4714 05-17-16
181 Valfore 12.4% 4748 05-17-16
182 Badlex727 12.3% 4750 05-17-16
183 GarnetPrincess 12.3% 4754 05-17-16
184 soniccoloursunleashed 12.0% 4770 05-17-16
185 ShinigamiMachine 12.0% 4771 05-17-16
186 Sonicsuperstar1 11.6% 4793 05-17-16
187 booo95 11.0% 4822 05-17-16
187 FocusSight64 11.0% 4822 05-17-16
189 Werey 11.0% 4824 05-17-16
190 SirTobbii 10.9% 4830 05-17-16
191 Mo Player Banned 10.7% 4838 05-17-16
192 sonicspeed 10.6% 4845 05-17-16
193 Venick409 9.7% 4891 05-17-16
194 nman36 9.7% 4896 05-17-16
195 Sithwarrior26 9.6% 4897 05-17-16
196 ingx24 9.2% 4921 05-17-16
197 CyberShadow 9.2% 4922 05-17-16
198 Fozer 8.7% 4947 05-17-16
199 Egor305 8.6% 4955 05-17-16
200 Colomb_30 8.5% 4959 05-17-16
201 dekki1234 8.4% 4962 05-17-16
202 Regano1000 8.4% 4964 05-17-16
203 1stKirbyever 8.2% 4977 05-17-16
204 TimTH 7.9% 4989 05-17-16
205 nuckrieg 7.9% 4990 05-17-16
206 Brian_pso 7.8% 4999 05-17-16
207 douglas 7.6% 5005 05-17-16
208 TakaRikka 7.5% 5013 05-17-16
209 Th4tN1nj4Turtl3 7.4% 5018 05-17-16
210 Zip 7.4% 5019 05-17-16
211 wheatrich 7.1% 5034 05-17-16
212 Mariosonic15 7.1% 5037 05-17-16
213 Wanamaker 7.0% 5041 05-17-16
214 SonataSpinDash 6.9% 5045 05-17-16
215 MStitomix 6.7% 5054 05-17-16
216 ieatatsonic 6.7% 5055 05-17-16
216 niscool 6.7% 5055 05-17-16
218 HermitHelmet 6.6% 5059 05-17-16
219 Got4n 6.4% 5072 05-17-16
220 Cort_pso 6.4% 5074 05-17-16
221 Triseena 6.3% 5080 05-17-16
222 Jose_15 6.1% 5088 05-17-16
223 Artie 5.9% 5099 05-17-16
224 BlankTH 5.9% 5102 05-17-16
225 SuperSonicfan9595 5.8% 5105 05-17-16
226 Ace747 5.6% 5118 05-17-16
227 HHNNBBHHN 5.5% 5120 05-17-16
228 Richied 5.4% 5124 05-17-16
229 Paixii 5.3% 5134 05-17-16
230 Aiko 5.2% 5137 05-17-16
231 slade23 5.0% 5147 05-17-16
232 BallzeH 5.0% 5149 05-17-16
233 FSSRandomvids 4.9% 5154 05-17-16
234 ArcticDragon 4.9% 5155 05-17-16
235 Mankster101 4.9% 5156 05-17-16
236 BecauseWarAnvil 4.8% 5157 05-17-16
236 PsyBorg 4.8% 5157 05-17-16
238 Jamixesa 4.8% 5158 05-17-16
239 Nickson98 4.7% 5166 05-17-16
240 Crydio 4.6% 5168 05-17-16
241 TheUltraBlur 4.5% 5177 05-17-16
242 ReuelBrony 4.4% 5181 05-17-16
243 stanski 4.3% 5188 05-17-16
244 MarewBFN 4.2% 5189 05-17-16
245 tal39h 4.2% 5194 05-17-16
246 knuckles_sonic8 4.0% 5204 05-17-16
246 p0ker 4.0% 5204 05-17-16
248 Blue Infamy 4.0% 5205 05-17-16
249 ErrortheCucco 3.8% 5215 05-17-16
250 Rikum22 3.7% 5218 05-17-16
251 sonic1001 3.5% 5227 05-17-16
252 TheChaosEmeraIds 3.5% 5228 05-17-16
253 AJSIV 3.5% 5232 05-17-16
254 syco1098 3.4% 5234 05-17-16
255 Sonic the Hedgehod16 3.4% 5237 05-17-16
256 sonicfan9 3.2% 5245 05-17-16
257 Calfd 3.2% 5248 05-17-16
258 themachoman202 3.0% 5259 05-17-16
259 MK 2.9% 5261 05-17-16
260 Fivavoa 2.8% 5269 05-17-16
260 Mr. Jones 2.8% 5269 05-17-16
262 BlackArmsShadow 2.8% 5270 05-17-16
263 djmat 2.7% 5271 05-17-16
264 arcfx1985 2.7% 5272 05-17-16
265 ptorflaxendrosis 2.7% 5274 05-17-16
265 Sonique Hedgehog 2.7% 5274 05-17-16
267 FlandreScarlet9999vr 2.6% 5279 05-17-16
268 Zeldocto 2.5% 5282 05-17-16
269 BeeAwwb 2.5% 5285 05-17-16
270 KaM Mark MaK 2.4% 5288 05-17-16
271 ShadouZaHejjihoggu 2.3% 5294 05-17-16
272 darkstarblaze 2.2% 5300 05-17-16
273 Sonic The Star 2.2% 5301 05-17-16
274 darkersupershadic 2.2% 5302 05-17-16
275 SpiritDragon1995 2.1% 5303 05-17-16
276 Sarger001 2.1% 5306 05-17-16
277 sonic29887 2.1% 5307 05-17-16
278 Grady219 2.1% 5308 05-17-16
279 Jawaah 2.0% 5313 05-17-16
279 shadowblast63 Player Banned 2.0% 5313 05-17-16
281 Antek 1.9% 5318 05-17-16
282 Klaus 1.8% 5320 05-17-16
283 BioShadow 1.8% 5323 05-17-16
284 Shanekilz 1.4% 5342 05-17-16
284 SkyBon 1.4% 5342 05-17-16
286 isaihtb11 1.4% 5344 05-17-16
287 OhNoes! 1.4% 5346 05-17-16
288 zaktu40 1.3% 5348 05-17-16
289 gaara1234 1.3% 5351 05-17-16
290 S-MS32X-S 1.2% 5352 05-17-16
291 MastaToken 1.1% 5358 05-17-16
292 Mister_Slick 1.1% 5361 05-17-16
293 Sonic06Fan 1.0% 5365 05-17-16
294 Rush Hero 1.0% 5367 05-17-16
295 SonicMega167 0.9% 5372 05-17-16
296 oTaiIilLsS 0.9% 5373 05-17-16
297 SilverK 0.8% 5374 05-17-16
298 gamed00d 0.8% 5375 05-17-16
299 Burningskull123 0.5% 5391 05-17-16
300 Heroes_Hater 0.5% 5393 05-17-16
301 Sonicontherun 0.3% 5401 05-17-16
302 antiwwe 0.2% 5407 05-17-16
303 Iwannabelink 0.2% 5409 05-17-16
304 Genuine Hedgehog 0.2% 5411 05-17-16
305 dragondragon18 0.1% 5415 05-17-16
306 SonicK100 0.1% 5416 05-17-16
307 Tyrouble 0.0% 5421 05-17-16
308 LancexExWx 0.0% 5422 05-17-16
308 neji_hyuuga 0.0% 5422 05-17-16
308 Over 0.0% 5422 05-17-16
308 sdj6707 Player Banned 0.0% 5422 05-17-16
308 Tran Sonic Fan Player Banned 0.0% 5422 05-17-16

This page is using the New Data Table System. [FUTURE]

Game ID: 3 | Category ID: 1
Hits: 8,075 | Hits This Month: 56 | DB Calls: 24 | Mem Usage: 5.45 MB | Time: 0.19s | Printable

The Sonic Center v3.9
Copyright 2003-2011 by The Sonic Center Team.